Time;durP1;ratioP1;P1;durP2;ratioP2;P2;SDS_P1;SDS_P2;PMS_P1;PMS_P2;Temp;Humidity;BMP_temperature;BMP_pressure;BME280_temperature;BME280_humidity;BME280_pressure;Samples;Min_cycle;Max_cycle;Signal;HPM_P1;HPM_P2
2022/01/03 00:00:24;;;;;;;5.45;1.30;;;;;;;;;;5052454;28;20123;-70
2022/01/03 00:02:56;;;;;;;5.40;1.10;;;;;;;;;;5053587;28;20049;-70
2022/01/03 00:05:24;;;;;;;3.28;1.10;;;;;;;;;;5052206;28;20032;-70
2022/01/03 00:07:51;;;;;;;5.18;1.00;;;;;;;;;;5053709;28;20029;-70
2022/01/03 00:10:19;;;;;;;6.78;1.30;;;;;;;;;;5053563;28;20148;-71
2022/01/03 00:12:49;;;;;;;4.88;1.23;;;;;;;;;;5053622;28;20592;-71
2022/01/03 00:15:17;;;;;;;5.32;1.50;;;;;;;;;;5052188;28;20053;-72
2022/01/03 00:17:46;;;;;;;2.95;1.05;;;;;;;;;;5052163;28;20120;-71
2022/01/03 00:20:13;;;;;;;4.43;0.98;;;;;;;;;;5053407;28;20660;-71
2022/01/03 00:22:54;;;;;;;4.75;1.10;;;;;;;;;;5053391;28;20021;-72
2022/01/03 00:25:23;;;;;;;6.45;1.25;;;;;;;;;;5053330;28;20029;-72
2022/01/03 00:27:57;;;;;;;6.18;1.65;;;;;;;;;;5052058;28;20031;-72
2022/01/03 00:30:25;;;;;;;6.93;1.30;;;;;;;;;;5053170;28;20507;-71
2022/01/03 00:32:53;;;;;;;7.80;1.10;;;;;;;;;;5051746;28;20401;-71
2022/01/03 00:35:21;;;;;;;5.35;1.10;;;;;;;;;;5053130;28;20025;-71
2022/01/03 00:37:48;;;;;;;7.78;1.30;;;;;;;;;;5052818;28;20082;-71
2022/01/03 00:40:19;;;;;;;6.40;1.02;;;;;;;;;;5053061;28;20049;-71
2022/01/03 00:42:46;;;;;;;5.90;1.00;;;;;;;;;;5053095;28;20044;-71
2022/01/03 00:45:13;;;;;;;4.03;1.20;;;;;;;;;;5052999;28;20067;-71
2022/01/03 00:47:41;;;;;;;4.40;1.00;;;;;;;;;;5051796;28;20048;-71
2022/01/03 00:50:11;;;;;;;6.22;1.20;;;;;;;;;;5052969;28;20025;-71
2022/01/03 00:52:39;;;;;;;5.80;1.08;;;;;;;;;;5051768;28;20436;-71
2022/01/03 00:55:07;;;;;;;6.60;1.20;;;;;;;;;;5052905;28;20021;-71
2022/01/03 00:57:52;;;;;;;4.85;1.17;;;;;;;;;;5053014;28;20112;-71
2022/01/03 01:00:19;;;;;;;4.20;1.10;;;;;;;;;;5052843;28;20021;-72
2022/01/03 01:02:50;;;;;;;4.10;1.10;;;;;;;;;;5052500;28;20068;-72
2022/01/03 01:05:20;;;;;;;5.57;1.77;;;;;;;;;;5052710;28;20071;-72
2022/01/03 01:07:48;;;;;;;8.48;1.70;;;;;;;;;;5052699;28;20415;-72
2022/01/03 01:10:16;;;;;;;4.38;0.75;;;;;;;;;;5051389;28;20036;-72
2022/01/03 01:12:43;;;;;;;4.63;1.10;;;;;;;;;;5052586;28;20029;-73
2022/01/03 01:15:11;;;;;;;7.50;1.50;;;;;;;;;;5052617;28;20370;-73
2022/01/03 01:17:38;;;;;;;6.43;1.65;;;;;;;;;;5051317;28;20021;-72
2022/01/03 01:20:05;;;;;;;5.97;1.45;;;;;;;;;;5052717;28;20397;-73
2022/01/03 01:22:32;;;;;;;4.50;1.20;;;;;;;;;;5051098;28;20082;-72
2022/01/03 01:27:49;;;;;;;5.28;1.27;;;;;;;;;;5052415;28;20029;-73
2022/01/03 01:30:17;;;;;;;5.18;1.00;;;;;;;;;;5052541;28;20024;-73
2022/01/03 01:32:56;;;;;;;7.63;1.10;;;;;;;;;;5052472;28;20068;-73
2022/01/03 01:35:25;;;;;;;5.88;1.08;;;;;;;;;;5052468;28;20017;-74
2022/01/03 01:37:55;;;;;;;4.75;0.85;;;;;;;;;;5052405;28;20032;-73
2022/01/03 01:40:23;;;;;;;5.05;1.00;;;;;;;;;;5051146;28;20029;-73
2022/01/03 01:42:50;;;;;;;4.03;1.15;;;;;;;;;;5052255;28;20052;-73
2022/01/03 01:45:21;;;;;;;5.78;1.30;;;;;;;;;;5052312;28;20178;-72
2022/01/03 01:47:49;;;;;;;5.68;1.20;;;;;;;;;;5052331;28;20034;-73
2022/01/03 01:50:17;;;;;;;4.55;1.13;;;;;;;;;;5054330;28;20021;-74
2022/01/03 01:52:46;;;;;;;7.22;1.67;;;;;;;;;;5056070;28;20118;-73
2022/01/03 01:55:14;;;;;;;7.13;1.13;;;;;;;;;;5054766;28;20029;-73
2022/01/03 01:57:41;;;;;;;5.25;1.15;;;;;;;;;;5054621;28;20219;-73
2022/01/03 02:00:13;;;;;;;5.63;1.38;;;;;;;;;;5054641;28;20035;-74
2022/01/03 02:03:06;;;;;;;7.03;1.83;;;;;;;;;;5054239;28;20045;-73
2022/01/03 02:05:41;;;;;;;6.22;1.58;;;;;;;;;;5054467;28;20017;-73
2022/01/03 02:08:13;;;;;;;4.75;0.80;;;;;;;;;;5054536;28;20389;-73
2022/01/03 02:10:51;;;;;;;4.55;1.02;;;;;;;;;;5054509;28;20048;-74
2022/01/03 02:13:21;;;;;;;8.52;1.08;;;;;;;;;;5054418;28;20116;-74
2022/01/03 02:15:57;;;;;;;5.47;1.05;;;;;;;;;;5055726;28;20053;-73
2022/01/03 02:18:25;;;;;;;4.03;0.90;;;;;;;;;;5055629;28;20104;-72
2022/01/03 02:20:53;;;;;;;4.88;0.75;;;;;;;;;;5055663;28;20021;-73
2022/01/03 02:23:20;;;;;;;4.00;0.95;;;;;;;;;;5055284;28;20033;-72
2022/01/03 02:25:47;;;;;;;4.75;1.25;;;;;;;;;;5055604;28;20029;-73
2022/01/03 02:28:16;;;;;;;4.75;1.23;;;;;;;;;;5055260;28;20023;-73
2022/01/03 02:30:43;;;;;;;5.53;1.00;;;;;;;;;;5055375;28;20045;-73
2022/01/03 02:33:10;;;;;;;8.45;1.40;;;;;;;;;;5055155;28;20031;-74
2022/01/03 02:35:38;;;;;;;7.10;1.23;;;;;;;;;;5055336;28;20055;-73
2022/01/03 02:38:06;;;;;;;5.43;1.55;;;;;;;;;;5055200;28;20024;-73
2022/01/03 02:40:33;;;;;;;6.05;1.25;;;;;;;;;;5055331;28;20488;-72
2022/01/03 02:43:00;;;;;;;5.00;1.00;;;;;;;;;;5055110;28;20047;-74
2022/01/03 02:45:27;;;;;;;5.70;1.00;;;;;;;;;;5055179;28;20017;-74
2022/01/03 02:47:56;;;;;;;6.80;1.35;;;;;;;;;;5053711;28;20025;-72
2022/01/03 02:50:24;;;;;;;4.55;1.10;;;;;;;;;;5055140;28;20021;-71
2022/01/03 02:52:52;;;;;;;6.82;1.25;;;;;;;;;;5053886;28;20515;-73
2022/01/03 02:55:19;;;;;;;5.32;1.20;;;;;;;;;;5054910;28;20033;-72
2022/01/03 02:57:50;;;;;;;8.63;1.40;;;;;;;;;;5054959;28;20150;-71
2022/01/03 03:00:20;;;;;;;8.05;1.15;;;;;;;;;;5053554;28;20029;-73
2022/01/03 03:02:47;;;;;;;6.20;1.37;;;;;;;;;;5054786;28;20056;-73
2022/01/03 03:05:14;;;;;;;4.72;1.05;;;;;;;;;;5054764;28;20079;-72
2022/01/03 03:07:42;;;;;;;6.38;1.73;;;;;;;;;;5053531;28;20028;-72
2022/01/03 03:10:14;;;;;;;4.78;1.15;;;;;;;;;;5054660;28;20017;-74
2022/01/03 03:12:42;;;;;;;4.82;1.42;;;;;;;;;;5054801;28;20086;-73
2022/01/03 03:15:10;;;;;;;3.85;0.82;;;;;;;;;;5054593;28;20047;-72
2022/01/03 03:17:39;;;;;;;6.75;1.60;;;;;;;;;;5053311;28;20108;-74
2022/01/03 03:20:06;;;;;;;5.72;1.13;;;;;;;;;;5054412;28;20021;-73
2022/01/03 03:22:33;;;;;;;6.20;1.38;;;;;;;;;;5054442;28;20588;-73
2022/01/03 03:25:03;;;;;;;3.28;0.88;;;;;;;;;;5054457;28;20025;-72
2022/01/03 03:27:30;;;;;;;5.57;1.33;;;;;;;;;;5054604;28;20013;-74
2022/01/03 03:29:58;;;;;;;5.22;1.40;;;;;;;;;;5054371;28;20470;-74
2022/01/03 03:32:26;;;;;;;5.53;1.35;;;;;;;;;;5054384;28;20021;-74
2022/01/03 03:34:54;;;;;;;5.28;1.10;;;;;;;;;;5054287;28;20104;-74
2022/01/03 03:37:21;;;;;;;4.60;1.30;;;;;;;;;;5054310;28;20036;-74
2022/01/03 03:39:48;;;;;;;7.35;1.77;;;;;;;;;;5054223;28;20074;-74
2022/01/03 03:42:16;;;;;;;6.35;1.60;;;;;;;;;;5052831;28;20025;-74
2022/01/03 03:44:45;;;;;;;4.95;1.25;;;;;;;;;;5054049;28;20174;-74
2022/01/03 03:47:12;;;;;;;3.80;0.90;;;;;;;;;;5054082;28;20017;-74
2022/01/03 03:49:39;;;;;;;4.95;1.70;;;;;;;;;;5052668;28;20017;-73
2022/01/03 03:52:06;;;;;;;4.03;0.93;;;;;;;;;;5053963;28;20024;-73
2022/01/03 03:54:34;;;;;;;5.20;1.27;;;;;;;;;;5053874;28;20025;-73
2022/01/03 03:57:02;;;;;;;4.03;0.80;;;;;;;;;;5053885;28;20031;-73
2022/01/03 03:59:29;;;;;;;3.85;0.95;;;;;;;;;;5053865;28;20028;-72
2022/01/03 04:01:57;;;;;;;6.47;1.20;;;;;;;;;;5053812;28;20025;-72
2022/01/03 04:04:25;;;;;;;5.22;1.42;;;;;;;;;;5053423;28;20086;-71
2022/01/03 04:06:52;;;;;;;4.00;1.10;;;;;;;;;;5053558;28;20143;-73
2022/01/03 04:09:19;;;;;;;5.88;1.27;;;;;;;;;;5053655;28;20460;-72
2022/01/03 04:11:46;;;;;;;3.72;0.88;;;;;;;;;;5053233;28;20367;-72
2022/01/03 04:14:13;;;;;;;9.02;1.48;;;;;;;;;;5053426;28;20105;-73
2022/01/03 04:16:40;;;;;;;6.28;1.50;;;;;;;;;;5052257;28;20397;-74
2022/01/03 04:19:08;;;;;;;5.10;1.10;;;;;;;;;;5053427;28;20025;-73
2022/01/03 04:21:37;;;;;;;5.53;1.10;;;;;;;;;;5053367;28;20048;-73
2022/01/03 04:24:05;;;;;;;8.30;1.30;;;;;;;;;;5052256;28;20128;-74
2022/01/03 04:26:32;;;;;;;5.13;1.17;;;;;;;;;;5053232;28;20025;-74
2022/01/03 04:28:59;;;;;;;3.10;1.08;;;;;;;;;;5053304;28;20021;-74
2022/01/03 04:31:27;;;;;;;6.35;1.38;;;;;;;;;;5051979;28;20021;-74
2022/01/03 04:33:54;;;;;;;4.85;1.10;;;;;;;;;;5053097;28;20028;-74
2022/01/03 04:36:21;;;;;;;6.15;0.95;;;;;;;;;;5053037;28;20029;-73
2022/01/03 04:38:48;;;;;;;5.18;1.17;;;;;;;;;;5053137;28;20529;-74
2022/01/03 04:41:15;;;;;;;5.78;1.38;;;;;;;;;;5053080;28;20473;-74
2022/01/03 04:43:42;;;;;;;3.72;0.90;;;;;;;;;;5053057;28;20545;-74
2022/01/03 04:46:10;;;;;;;4.15;1.25;;;;;;;;;;5051563;28;20025;-73
2022/01/03 04:48:38;;;;;;;6.90;1.20;;;;;;;;;;5053055;28;20025;-75
2022/01/03 04:51:06;;;;;;;5.72;1.40;;;;;;;;;;5051627;28;20486;-73
2022/01/03 04:53:37;;;;;;;6.15;1.40;;;;;;;;;;5052991;28;20071;-74
2022/01/03 04:56:04;;;;;;;5.45;1.40;;;;;;;;;;5052968;28;20100;-73
2022/01/03 04:58:31;;;;;;;5.95;1.58;;;;;;;;;;5052796;28;20052;-74
2022/01/03 05:00:59;;;;;;;5.63;0.98;;;;;;;;;;5052838;28;20496;-74
2022/01/03 05:03:26;;;;;;;7.65;1.30;;;;;;;;;;5052377;28;20045;-75
2022/01/03 05:05:53;;;;;;;4.72;0.90;;;;;;;;;;5051657;28;20378;-75
2022/01/03 05:08:20;;;;;;;5.10;1.08;;;;;;;;;;5052791;28;20021;-76
2022/01/03 05:10:47;;;;;;;3.97;1.00;;;;;;;;;;5051494;28;20028;-74
2022/01/03 05:13:14;;;;;;;6.50;1.40;;;;;;;;;;5052730;28;20025;-74
2022/01/03 05:15:41;;;;;;;2.70;0.80;;;;;;;;;;5052889;28;20508;-74
2022/01/03 05:18:08;;;;;;;4.47;1.15;;;;;;;;;;5052572;28;20036;-74
2022/01/03 05:20:36;;;;;;;5.50;1.45;;;;;;;;;;5052762;28;20152;-73
2022/01/03 05:23:03;;;;;;;7.28;1.50;;;;;;;;;;5052656;28;20087;-73
2022/01/03 05:25:30;;;;;;;5.38;1.10;;;;;;;;;;5055292;28;20028;-73
2022/01/03 05:27:57;;;;;;;7.07;1.30;;;;;;;;;;5055309;28;20104;-74
2022/01/03 05:30:24;;;;;;;4.45;1.10;;;;;;;;;;5055349;28;20021;-73
2022/01/03 05:32:51;;;;;;;7.65;1.45;;;;;;;;;;5056533;28;20082;-72
2022/01/03 05:35:19;;;;;;;5.47;1.58;;;;;;;;;;5056500;28;20028;-74
2022/01/03 05:37:46;;;;;;;7.85;1.77;;;;;;;;;;5055114;28;20486;-73
2022/01/03 05:40:13;;;;;;;5.90;1.52;;;;;;;;;;5055164;28;20585;-72
2022/01/03 05:42:41;;;;;;;5.32;1.50;;;;;;;;;;5056303;28;20056;-74
2022/01/03 05:45:09;;;;;;;4.60;1.27;;;;;;;;;;5055062;28;20022;-74
2022/01/03 05:47:36;;;;;;;5.28;1.27;;;;;;;;;;5055019;28;20067;-73
2022/01/03 05:50:05;;;;;;;7.45;1.63;;;;;;;;;;5056272;28;20047;-73
2022/01/03 05:52:33;;;;;;;5.67;1.00;;;;;;;;;;5056208;28;20384;-73
2022/01/03 05:55:00;;;;;;;6.65;1.35;;;;;;;;;;5056130;28;20025;-74
2022/01/03 05:57:27;;;;;;;5.22;0.93;;;;;;;;;;5056180;28;20024;-74
2022/01/03 05:59:54;;;;;;;6.15;1.23;;;;;;;;;;5056089;28;20067;-74
2022/01/03 06:02:22;;;;;;;5.13;1.23;;;;;;;;;;5055724;28;20131;-74
2022/01/03 06:07:20;;;;;;;4.47;1.38;;;;;;;;;;5055930;28;20021;-72
2022/01/03 06:09:48;;;;;;;5.32;1.42;;;;;;;;;;5054635;28;20108;-72
2022/01/03 06:12:17;;;;;;;4.78;1.48;;;;;;;;;;5054586;28;20021;-74
2022/01/03 06:14:47;;;;;;;5.55;1.52;;;;;;;;;;5054494;28;20095;-73
2022/01/03 06:17:15;;;;;;;5.80;1.58;;;;;;;;;;5054523;28;20031;-73
2022/01/03 06:19:42;;;;;;;5.82;1.63;;;;;;;;;;5055832;28;20056;-73
2022/01/03 06:22:09;;;;;;;4.32;1.10;;;;;;;;;;5055581;28;20025;-71
2022/01/03 06:24:40;;;;;;;5.45;1.23;;;;;;;;;;5055488;28;20385;-74
2022/01/03 06:27:08;;;;;;;5.20;1.10;;;;;;;;;;5055800;28;20017;-74
2022/01/03 06:29:35;;;;;;;5.05;1.25;;;;;;;;;;5055537;28;20389;-74
2022/01/03 06:32:03;;;;;;;5.75;1.50;;;;;;;;;;5055531;28;20021;-73
2022/01/03 06:34:30;;;;;;;3.78;1.00;;;;;;;;;;5055460;28;20025;-74
2022/01/03 06:36:57;;;;;;;4.05;1.30;;;;;;;;;;5053705;28;20036;-73
2022/01/03 06:39:24;;;;;;;4.38;0.98;;;;;;;;;;5055444;28;20045;-75
2022/01/03 06:41:51;;;;;;;4.47;1.10;;;;;;;;;;5054112;28;20056;-73
2022/01/03 06:44:18;;;;;;;4.72;1.20;;;;;;;;;;5055129;28;20033;-73
2022/01/03 06:46:47;;;;;;;6.13;1.55;;;;;;;;;;5053993;28;20390;-73
2022/01/03 06:49:15;;;;;;;3.93;1.20;;;;;;;;;;5055176;28;20017;-72
2022/01/03 06:51:42;;;;;;;5.30;1.38;;;;;;;;;;5055172;28;20021;-72
2022/01/03 06:54:14;;;;;;;4.85;0.98;;;;;;;;;;5055112;28;20017;-72
2022/01/03 06:56:42;;;;;;;5.55;1.10;;;;;;;;;;5055104;28;20493;-71
2022/01/03 06:59:09;;;;;;;6.43;1.40;;;;;;;;;;5053857;28;20485;-73
2022/01/03 07:01:37;;;;;;;5.10;1.23;;;;;;;;;;5054895;28;20028;-72
2022/01/03 07:04:04;;;;;;;4.65;1.58;;;;;;;;;;5053369;28;20127;-72
2022/01/03 07:06:32;;;;;;;8.30;1.33;;;;;;;;;;5053448;28;20559;-73
2022/01/03 07:08:59;;;;;;;4.70;1.23;;;;;;;;;;5054811;28;20455;-73
2022/01/03 07:11:27;;;;;;;4.80;1.27;;;;;;;;;;5054648;28;20029;-73
2022/01/03 07:14:05;;;;;;;3.55;1.20;;;;;;;;;;5054687;28;20025;-73
2022/01/03 07:19:18;;;;;;;5.72;1.55;;;;;;;;;;5054802;28;20040;-73
2022/01/03 07:21:47;;;;;;;5.43;1.13;;;;;;;;;;5054421;28;20025;-73
2022/01/03 07:24:14;;;;;;;;;;;;;;;;;;5054660;28;20025;-72
2022/01/03 07:26:41;;;;;;;3.80;1.20;;;;;;;;;;5054217;28;19905;-73
2022/01/03 07:29:08;;;;;;;5.82;1.50;;;;;;;;;;5053138;28;20108;-73
2022/01/03 07:31:35;;;;;;;7.03;1.58;;;;;;;;;;5054209;28;20048;-72
2022/01/03 07:34:02;;;;;;;7.38;2.33;;;;;;;;;;5054237;28;20055;-71
2022/01/03 07:36:32;;;;;;;5.38;1.98;;;;;;;;;;5052598;28;20048;-74
2022/01/03 07:38:59;;;;;;;6.88;1.38;;;;;;;;;;5053868;28;20037;-73
2022/01/03 07:41:26;;;;;;;6.25;1.52;;;;;;;;;;5054066;28;20056;-73
2022/01/03 07:43:54;;;;;;;8.00;1.77;;;;;;;;;;5052795;28;20032;-73
2022/01/03 07:46:21;;;;;;;5.22;1.45;;;;;;;;;;5053907;28;20021;-74
2022/01/03 07:48:48;;;;;;;7.28;1.80;;;;;;;;;;5053315;28;20543;-74
2022/01/03 07:51:15;;;;;;;5.35;1.20;;;;;;;;;;5053847;28;20100;-74
2022/01/03 07:53:42;;;;;;;7.18;1.73;;;;;;;;;;5052513;28;20052;-73
2022/01/03 07:56:10;;;;;;;6.30;1.55;;;;;;;;;;5053950;28;20389;-73
2022/01/03 07:58:38;;;;;;;6.68;1.63;;;;;;;;;;5053894;28;20039;-73
2022/01/03 08:01:05;;;;;;;7.03;2.13;;;;;;;;;;5053687;28;20096;-73
2022/01/03 08:03:33;;;;;;;8.13;1.95;;;;;;;;;;5053439;28;20041;-74
2022/01/03 08:06:00;;;;;;;11.13;1.70;;;;;;;;;;5053752;28;20017;-74
2022/01/03 08:08:27;;;;;;;6.93;1.75;;;;;;;;;;5053611;28;20074;-74
2022/01/03 08:10:54;;;;;;;11.20;2.53;;;;;;;;;;5053678;28;20017;-72
2022/01/03 08:13:21;;;;;;;9.27;2.67;;;;;;;;;;5053525;28;20512;-73
2022/01/03 08:15:49;;;;;;;9.13;2.22;;;;;;;;;;5052240;28;20029;-74
2022/01/03 08:18:16;;;;;;;9.98;1.85;;;;;;;;;;5053408;28;20027;-73
2022/01/03 08:20:43;;;;;;;7.90;2.00;;;;;;;;;;5053471;28;20036;-74
2022/01/03 08:23:10;;;;;;;8.13;1.67;;;;;;;;;;5053201;28;20025;-72
2022/01/03 08:25:38;;;;;;;7.68;1.70;;;;;;;;;;5053435;28;20025;-73
2022/01/03 08:28:06;;;;;;;9.57;2.20;;;;;;;;;;5052017;28;20505;-72
2022/01/03 08:30:33;;;;;;;8.50;2.20;;;;;;;;;;5053257;28;20017;-73
2022/01/03 08:33:01;;;;;;;8.50;1.50;;;;;;;;;;5053195;28;20393;-72
2022/01/03 08:35:28;;;;;;;11.38;2.10;;;;;;;;;;5053230;28;20024;-73
2022/01/03 08:37:55;;;;;;;10.90;2.53;;;;;;;;;;5053035;28;20094;-74
2022/01/03 08:40:23;;;;;;;9.40;2.08;;;;;;;;;;5053221;28;20025;-72
2022/01/03 08:42:51;;;;;;;10.20;1.83;;;;;;;;;;5051626;28;20075;-73
2022/01/03 08:45:19;;;;;;;11.32;2.47;;;;;;;;;;5053081;28;20021;-72
2022/01/03 08:47:47;;;;;;;8.75;1.88;;;;;;;;;;5051743;28;20040;-72
2022/01/03 08:50:15;;;;;;;6.75;1.75;;;;;;;;;;5051660;28;20032;-73
2022/01/03 08:52:43;;;;;;;7.63;2.03;;;;;;;;;;5052979;28;20092;-73
2022/01/03 08:55:10;;;;;;;11.38;1.90;;;;;;;;;;5052978;28;20021;-72
2022/01/03 08:57:38;;;;;;;12.50;2.58;;;;;;;;;;5051603;28;20025;-73
2022/01/03 09:00:06;;;;;;;9.35;2.10;;;;;;;;;;5051335;28;20025;-74
2022/01/03 09:02:33;;;;;;;11.20;1.92;;;;;;;;;;5052564;28;20116;-74
2022/01/03 09:05:00;;;;;;;8.93;2.10;;;;;;;;;;5052562;28;20134;-73
2022/01/03 09:07:27;;;;;;;8.02;1.70;;;;;;;;;;5052755;28;20429;-73
2022/01/03 09:09:54;;;;;;;7.47;2.05;;;;;;;;;;5051425;28;20047;-74
2022/01/03 09:12:22;;;;;;;11.98;2.50;;;;;;;;;;5052824;28;20029;-73
2022/01/03 09:14:49;;;;;;;9.85;2.33;;;;;;;;;;5052594;28;20024;-73
2022/01/03 09:17:16;;;;;;;12.60;2.20;;;;;;;;;;5052645;28;20078;-75
2022/01/03 09:19:43;;;;;;;8.95;2.00;;;;;;;;;;5051237;28;20036;-74
2022/01/03 09:22:20;;;;;;;16.10;2.90;;;;;;;;;;5051250;28;20025;-74
2022/01/03 09:30:02;;;;;;;11.90;2.58;;;;;;;;;;5052620;28;20555;-73
2022/01/03 09:32:29;;;;;;;9.10;2.53;;;;;;;;;;5052693;28;20025;-72
2022/01/03 09:34:57;;;;;;;15.32;2.47;;;;;;;;;;5052632;28;20025;-74
2022/01/03 09:37:25;;;;;;;11.15;2.72;;;;;;;;;;5051251;28;20434;-74
2022/01/03 09:39:52;;;;;;;12.20;2.08;;;;;;;;;;5051472;28;20029;-75
2022/01/03 09:42:29;;;;;;;11.70;2.42;;;;;;;;;;5052552;28;20049;-74
2022/01/03 09:44:59;;;;;;;13.20;2.67;;;;;;;;;;5052630;28;20083;-74
2022/01/03 09:47:29;;;;;;;10.13;2.25;;;;;;;;;;5051363;28;20025;-74
2022/01/03 09:49:59;;;;;;;9.77;2.50;;;;;;;;;;5052783;28;20053;-74
2022/01/03 09:52:26;;;;;;;11.93;2.72;;;;;;;;;;5052472;28;20083;-75
2022/01/03 09:54:55;;;;;;;11.68;2.15;;;;;;;;;;5051383;28;20445;-74
2022/01/03 09:57:22;;;;;;;13.27;2.70;;;;;;;;;;5052307;28;20017;-73
2022/01/03 09:59:50;;;;;;;14.07;2.67;;;;;;;;;;5052596;28;20021;-74
2022/01/03 10:02:19;;;;;;;10.82;2.60;;;;;;;;;;5051004;28;20112;-74
2022/01/03 10:04:46;;;;;;;14.23;2.90;;;;;;;;;;5051137;28;20490;-73
2022/01/03 10:07:14;;;;;;;13.70;2.42;;;;;;;;;;5052378;28;20052;-74
2022/01/03 10:09:42;;;;;;;9.88;2.33;;;;;;;;;;5052623;28;20028;-73
2022/01/03 10:12:13;;;;;;;16.50;2.72;;;;;;;;;;5055773;28;20033;-75
2022/01/03 10:14:43;;;;;;;9.43;2.20;;;;;;;;;;5054754;28;20055;-74
2022/01/03 10:17:10;;;;;;;11.20;2.58;;;;;;;;;;5055870;28;20096;-74
2022/01/03 10:19:58;;;;;;;14.27;2.47;;;;;;;;;;5055842;28;20017;-73
2022/01/03 10:22:27;;;;;;;12.10;2.58;;;;;;;;;;5055984;28;20028;-74
2022/01/03 10:24:54;;;;;;;14.85;2.70;;;;;;;;;;5054647;28;20056;-73
2022/01/03 10:27:23;;;;;;;11.38;2.60;;;;;;;;;;5055752;28;20020;-74
2022/01/03 10:29:57;;;;;;;11.63;2.40;;;;;;;;;;5055780;28;20114;-74
2022/01/03 10:32:34;;;;;;;9.80;2.53;;;;;;;;;;5055638;28;20062;-73
2022/01/03 10:35:14;;;;;;;10.45;2.22;;;;;;;;;;5054504;28;20032;-74
2022/01/03 10:37:41;;;;;;;8.82;2.22;;;;;;;;;;5055774;28;20020;-74
2022/01/03 10:40:27;;;;;;;12.90;2.60;;;;;;;;;;5054278;28;20211;-74
2022/01/03 10:42:58;;;;;;;10.77;2.83;;;;;;;;;;5053956;28;20028;-73
2022/01/03 10:45:29;;;;;;;12.18;2.40;;;;;;;;;;5054005;28;20174;-74
2022/01/03 10:47:56;;;;;;;11.02;2.22;;;;;;;;;;5055328;28;20071;-74
2022/01/03 10:50:24;;;;;;;11.73;2.75;;;;;;;;;;5053818;28;20021;-73
2022/01/03 10:52:52;;;;;;;10.98;2.40;;;;;;;;;;5053911;28;20024;-74
2022/01/03 10:55:35;;;;;;;12.43;2.40;;;;;;;;;;5055041;28;20017;-74
2022/01/03 10:58:08;;;;;;;8.25;2.00;;;;;;;;;;5055101;28;20023;-74
2022/01/03 11:00:37;;;;;;;11.25;2.17;;;;;;;;;;5053635;28;20099;-73
2022/01/03 11:03:08;;;;;;;13.52;2.05;;;;;;;;;;5054686;28;20067;-73
2022/01/03 11:05:40;;;;;;;9.00;2.30;;;;;;;;;;5053660;28;20017;-74
2022/01/03 11:10:44;;;;;;;12.52;2.15;;;;;;;;;;5054744;28;20557;-74
2022/01/03 11:13:17;;;;;;;16.50;3.20;;;;;;;;;;5054843;28;20033;-73
2022/01/03 11:15:44;;;;;;;15.18;2.63;;;;;;;;;;5053442;28;20466;-74
2022/01/03 11:18:17;;;;;;;11.18;2.45;;;;;;;;;;5054654;28;20382;-74
2022/01/03 11:20:44;;;;;;;11.70;2.67;;;;;;;;;;5054615;28;20021;-75
2022/01/03 11:23:18;;;;;;;8.40;2.17;;;;;;;;;;5054459;28;20536;-75
2022/01/03 11:25:46;;;;;;;9.40;2.08;;;;;;;;;;5054517;28;20013;-74
2022/01/03 11:28:13;;;;;;;14.52;2.95;;;;;;;;;;5054432;28;20047;-75
2022/01/03 11:30:40;;;;;;;14.13;2.60;;;;;;;;;;5054469;28;20044;-74
2022/01/03 11:33:09;;;;;;;14.10;2.38;;;;;;;;;;5053193;28;20115;-74
2022/01/03 11:35:37;;;;;;;9.48;2.25;;;;;;;;;;5053014;28;20115;-75
2022/01/03 11:38:06;;;;;;;13.65;2.20;;;;;;;;;;5054261;28;20032;-74
2022/01/03 11:40:33;;;;;;;9.20;2.05;;;;;;;;;;5054279;28;20420;-74
2022/01/03 11:43:00;;;;;;;10.43;2.22;;;;;;;;;;5054162;28;20052;-74
2022/01/03 11:45:27;;;;;;;11.70;1.85;;;;;;;;;;5052807;28;20021;-75
2022/01/03 11:47:55;;;;;;;11.73;2.50;;;;;;;;;;5054070;28;20028;-74
2022/01/03 11:50:22;;;;;;;10.98;2.42;;;;;;;;;;5054115;28;20485;-74
2022/01/03 11:52:49;;;;;;;10.85;2.28;;;;;;;;;;5054020;28;20028;-74
2022/01/03 11:55:17;;;;;;;9.75;2.50;;;;;;;;;;5053927;28;20028;-74
2022/01/03 11:57:58;;;;;;;12.85;3.17;;;;;;;;;;5054025;28;20021;-74
2022/01/03 12:05:59;;;;;;;9.35;2.47;;;;;;;;;;5054060;28;20059;-75
2022/01/03 12:08:36;;;;;;;10.75;2.10;;;;;;;;;;5053660;28;20021;-75
2022/01/03 12:11:20;;;;;;;6.22;1.60;;;;;;;;;;5053685;28;20591;-74
2022/01/03 12:13:50;;;;;;;9.05;1.90;;;;;;;;;;5052313;28;20025;-74
2022/01/03 12:16:18;;;;;;;8.93;1.67;;;;;;;;;;5052352;28;20025;-74
2022/01/03 12:19:01;;;;;;;7.70;1.95;;;;;;;;;;5053577;28;20363;-75
2022/01/03 12:21:47;;;;;;;5.63;1.77;;;;;;;;;;5053509;28;20056;-75
2022/01/03 12:24:32;;;;;;;8.45;2.25;;;;;;;;;;5053425;28;20449;-74
2022/01/03 12:27:11;;;;;;;8.48;2.25;;;;;;;;;;5053367;28;20039;-75
2022/01/03 12:29:54;;;;;;;8.13;1.65;;;;;;;;;;5052051;28;20511;-75
2022/01/03 12:32:25;;;;;;;12.77;2.53;;;;;;;;;;5052087;28;20059;-74
2022/01/03 12:35:11;;;;;;;9.90;2.08;;;;;;;;;;5052845;28;20032;-74
2022/01/03 12:38:08;;;;;;;12.57;2.03;;;;;;;;;;5053290;28;20440;-73
2022/01/03 12:40:45;;;;;;;10.77;2.15;;;;;;;;;;5053190;28;20105;-73
2022/01/03 12:43:13;;;;;;;9.18;1.98;;;;;;;;;;5051795;28;20116;-74
2022/01/03 12:45:40;;;;;;;7.57;2.22;;;;;;;;;;5051792;28;20032;-74
2022/01/03 12:48:10;;;;;;;11.35;2.08;;;;;;;;;;5053138;28;20381;-74
2022/01/03 12:50:37;;;;;;;8.75;1.90;;;;;;;;;;5051778;28;20029;-74
2022/01/03 12:53:05;;;;;;;10.07;1.88;;;;;;;;;;5051708;28;20115;-74
2022/01/03 12:55:39;;;;;;;8.07;1.42;;;;;;;;;;5053032;28;20044;-74
2022/01/03 12:58:18;;;;;;;11.93;2.10;;;;;;;;;;5051696;28;20029;-74
2022/01/03 13:00:46;;;;;;;8.68;2.00;;;;;;;;;;5052924;28;20021;-73
2022/01/03 13:03:23;;;;;;;9.68;2.15;;;;;;;;;;5052600;28;20409;-74
2022/01/03 13:06:11;;;;;;;9.82;1.85;;;;;;;;;;5051594;28;20055;-74
2022/01/03 13:08:39;;;;;;;7.53;1.38;;;;;;;;;;5052872;28;20490;-74
2022/01/03 13:11:08;;;;;;;9.70;1.88;;;;;;;;;;5052758;28;20482;-74
2022/01/03 13:13:36;;;;;;;8.23;1.73;;;;;;;;;;5052844;28;20025;-74
2022/01/03 13:16:23;;;;;;;10.63;1.95;;;;;;;;;;5051526;28;20108;-75
2022/01/03 13:18:55;;;;;;;9.07;1.92;;;;;;;;;;5051401;28;20574;-74
2022/01/03 13:21:23;;;;;;;9.40;1.70;;;;;;;;;;5052803;28;20473;-74
2022/01/03 13:24:06;;;;;;;6.63;1.23;;;;;;;;;;5051374;28;20052;-74
2022/01/03 13:26:33;;;;;;;9.82;1.30;;;;;;;;;;5052688;28;20045;-75
2022/01/03 13:29:02;;;;;;;9.07;1.83;;;;;;;;;;5052697;28;20021;-75
2022/01/03 13:31:29;;;;;;;8.88;1.60;;;;;;;;;;5051424;28;20020;-75
2022/01/03 13:34:01;;;;;;;10.40;1.90;;;;;;;;;;5052628;28;20029;-75
2022/01/03 13:36:35;;;;;;;11.43;2.40;;;;;;;;;;5051345;28;20402;-74
2022/01/03 13:39:06;;;;;;;8.32;1.95;;;;;;;;;;5052534;28;20498;-75
2022/01/03 13:41:46;;;;;;;10.13;1.90;;;;;;;;;;5051293;28;20025;-75
2022/01/03 13:44:24;;;;;;;7.05;1.38;;;;;;;;;;5051183;28;20021;-75
2022/01/03 13:49:43;;;;;;;8.75;2.58;;;;;;;;;;5056672;28;20063;-74
2022/01/03 13:52:11;;;;;;;8.13;1.83;;;;;;;;;;5055113;28;20075;-74
2022/01/03 13:54:40;;;;;;;6.53;1.40;;;;;;;;;;5054982;28;20078;-75
2022/01/03 13:57:09;;;;;;;11.93;2.42;;;;;;;;;;5055021;28;20028;-74
2022/01/03 13:59:38;;;;;;;9.85;1.60;;;;;;;;;;5054812;28;20163;-74
2022/01/03 14:02:06;;;;;;;13.68;1.95;;;;;;;;;;5056172;28;20029;-75
2022/01/03 14:04:34;;;;;;;7.40;1.65;;;;;;;;;;5055773;28;20120;-74
2022/01/03 14:07:06;;;;;;;7.50;1.65;;;;;;;;;;5054741;28;20040;-74
2022/01/03 14:09:41;;;;;;;10.45;1.80;;;;;;;;;;5056057;28;20384;-74
2022/01/03 14:12:12;;;;;;;9.82;2.05;;;;;;;;;;5056074;28;20557;-74
2022/01/03 14:14:40;;;;;;;6.90;1.65;;;;;;;;;;5054717;28;20116;-74
2022/01/03 14:17:08;;;;;;;10.48;2.20;;;;;;;;;;5055947;28;20052;-74
2022/01/03 14:19:36;;;;;;;9.23;2.05;;;;;;;;;;5054510;28;20516;-74
2022/01/03 14:22:16;;;;;;;11.07;2.28;;;;;;;;;;5054467;28;20028;-74
2022/01/03 14:24:56;;;;;;;9.20;2.90;;;;;;;;;;5054350;28;20078;-74
2022/01/03 14:27:23;;;;;;;8.70;2.28;;;;;;;;;;5055727;28;20481;-74
2022/01/03 14:29:50;;;;;;;12.63;2.10;;;;;;;;;;5054410;28;20017;-75
2022/01/03 14:32:17;;;;;;;11.85;2.65;;;;;;;;;;5055602;28;20029;-75
2022/01/03 14:34:52;;;;;;;11.70;2.13;;;;;;;;;;5055591;28;20055;-73
2022/01/03 14:37:30;;;;;;;6.43;1.75;;;;;;;;;;5054223;28;20116;-74
2022/01/03 14:39:57;;;;;;;9.05;2.00;;;;;;;;;;5055595;28;20025;-74
2022/01/03 14:42:25;;;;;;;11.18;2.50;;;;;;;;;;5055483;28;20102;-74
2022/01/03 14:44:53;;;;;;;14.68;2.60;;;;;;;;;;5053978;28;20497;-73
2022/01/03 14:47:27;;;;;;;8.45;2.10;;;;;;;;;;5055333;28;20032;-74
2022/01/03 14:50:01;;;;;;;7.47;1.85;;;;;;;;;;5055317;28;20025;-74
2022/01/03 14:52:33;;;;;;;8.57;2.00;;;;;;;;;;5055246;28;20032;-74
2022/01/03 14:55:00;;;;;;;7.78;2.03;;;;;;;;;;5055223;28;20029;-75
2022/01/03 14:57:29;;;;;;;7.88;1.60;;;;;;;;;;5054782;28;20021;-74
2022/01/03 14:59:58;;;;;;;11.23;2.28;;;;;;;;;;5053813;28;20025;-74
2022/01/03 15:02:25;;;;;;;9.02;1.90;;;;;;;;;;5053573;28;20405;-74
2022/01/03 15:04:53;;;;;;;8.93;1.90;;;;;;;;;;5054967;28;20025;-74
2022/01/03 15:07:22;;;;;;;11.23;2.42;;;;;;;;;;5054965;28;20065;-74
2022/01/03 15:09:52;;;;;;;9.27;1.90;;;;;;;;;;5053891;28;20389;-73
2022/01/03 15:12:20;;;;;;;9.63;2.17;;;;;;;;;;5054897;28;20017;-74
2022/01/03 15:14:47;;;;;;;12.95;2.30;;;;;;;;;;5054847;28;20021;-74
2022/01/03 15:17:15;;;;;;;9.85;1.80;;;;;;;;;;5054827;28;20028;-74